sensor_id;sensor_type;location;lat;lon;timestamp;P1;durP1;ratioP1;P2;durP2;ratioP2
65998;SDS011;52766;56.008;37.440;2023-11-19T00:01:18;35.15;;;13.55;;
65998;SDS011;52766;56.008;37.440;2023-11-19T00:03:46;47.97;;;15.90;;
65998;SDS011;52766;56.008;37.440;2023-11-19T00:06:17;41.65;;;16.65;;
65998;SDS011;52766;56.008;37.440;2023-11-19T00:08:47;38.65;;;16.23;;
65998;SDS011;52766;56.008;37.440;2023-11-19T00:11:14;50.45;;;18.02;;
65998;SDS011;52766;56.008;37.440;2023-11-19T00:13:45;38.25;;;17.70;;
65998;SDS011;52766;56.008;37.440;2023-11-19T00:16:18;47.90;;;15.18;;
65998;SDS011;52766;56.008;37.440;2023-11-19T00:18:46;41.72;;;15.00;;
65998;SDS011;52766;56.008;37.440;2023-11-19T00:21:16;50.75;;;21.88;;
65998;SDS011;52766;56.008;37.440;2023-11-19T00:27:32;52.13;;;20.20;;
65998;SDS011;52766;56.008;37.440;2023-11-19T00:29:59;61.05;;;22.52;;
65998;SDS011;52766;56.008;37.440;2023-11-19T00:32:29;47.03;;;23.92;;
65998;SDS011;52766;56.008;37.440;2023-11-19T00:34:58;58.90;;;23.45;;
65998;SDS011;52766;56.008;37.440;2023-11-19T00:37:25;65.55;;;30.63;;
65998;SDS011;52766;56.008;37.440;2023-11-19T00:39:58;60.30;;;26.73;;
65998;SDS011;52766;56.008;37.440;2023-11-19T00:42:27;56.97;;;24.77;;
65998;SDS011;52766;56.008;37.440;2023-11-19T00:44:58;110.90;;;51.55;;
65998;SDS011;52766;56.008;37.440;2023-11-19T00:47:30;90.57;;;43.45;;
65998;SDS011;52766;56.008;37.440;2023-11-19T00:49:59;81.88;;;35.33;;
65998;SDS011;52766;56.008;37.440;2023-11-19T00:52:29;96.28;;;40.80;;
65998;SDS011;52766;56.008;37.440;2023-11-19T00:54:59;48.72;;;21.75;;
65998;SDS011;52766;56.008;37.440;2023-11-19T00:57:28;124.38;;;43.80;;
65998;SDS011;52766;56.008;37.440;2023-11-19T00:59:55;85.03;;;37.78;;
65998;SDS011;52766;56.008;37.440;2023-11-19T01:02:22;83.15;;;35.00;;
65998;SDS011;52766;56.008;37.440;2023-11-19T01:04:48;72.90;;;33.78;;
65998;SDS011;52766;56.008;37.440;2023-11-19T01:07:18;68.57;;;30.80;;
65998;SDS011;52766;56.008;37.440;2023-11-19T01:09:48;57.08;;;28.58;;
65998;SDS011;52766;56.008;37.440;2023-11-19T01:12:17;67.10;;;31.15;;
65998;SDS011;52766;56.008;37.440;2023-11-19T01:14:43;67.50;;;29.98;;
65998;SDS011;52766;56.008;37.440;2023-11-19T01:17:10;76.70;;;34.17;;
65998;SDS011;52766;56.008;37.440;2023-11-19T01:19:39;85.80;;;34.75;;
65998;SDS011;52766;56.008;37.440;2023-11-19T01:22:06;70.80;;;29.75;;
65998;SDS011;52766;56.008;37.440;2023-11-19T01:24:36;84.07;;;34.05;;
65998;SDS011;52766;56.008;37.440;2023-11-19T01:27:03;68.25;;;32.15;;
65998;SDS011;52766;56.008;37.440;2023-11-19T01:29:30;76.07;;;36.22;;
65998;SDS011;52766;56.008;37.440;2023-11-19T01:31:56;85.95;;;37.75;;
65998;SDS011;52766;56.008;37.440;2023-11-19T01:34:23;49.05;;;21.98;;
65998;SDS011;52766;56.008;37.440;2023-11-19T01:36:52;77.78;;;34.65;;
65998;SDS011;52766;56.008;37.440;2023-11-19T01:39:20;65.45;;;29.98;;
65998;SDS011;52766;56.008;37.440;2023-11-19T01:41:47;72.60;;;30.23;;
65998;SDS011;52766;56.008;37.440;2023-11-19T01:44:14;72.35;;;31.80;;
65998;SDS011;52766;56.008;37.440;2023-11-19T01:46:42;49.85;;;24.58;;
65998;SDS011;52766;56.008;37.440;2023-11-19T01:49:11;62.47;;;30.08;;
65998;SDS011;52766;56.008;37.440;2023-11-19T01:51:38;71.47;;;31.25;;
65998;SDS011;52766;56.008;37.440;2023-11-19T01:54:06;65.45;;;29.77;;
65998;SDS011;52766;56.008;37.440;2023-11-19T01:56:35;74.53;;;31.58;;
65998;SDS011;52766;56.008;37.440;2023-11-19T01:59:03;70.50;;;32.42;;
65998;SDS011;52766;56.008;37.440;2023-11-19T02:01:31;60.05;;;29.50;;
65998;SDS011;52766;56.008;37.440;2023-11-19T02:04:06;51.78;;;23.33;;
65998;SDS011;52766;56.008;37.440;2023-11-19T02:06:33;55.90;;;26.08;;
65998;SDS011;52766;56.008;37.440;2023-11-19T02:09:04;60.88;;;27.02;;
65998;SDS011;52766;56.008;37.440;2023-11-19T02:11:34;59.28;;;26.83;;
65998;SDS011;52766;56.008;37.440;2023-11-19T02:14:04;52.70;;;24.02;;
65998;SDS011;52766;56.008;37.440;2023-11-19T02:16:31;63.30;;;26.80;;
65998;SDS011;52766;56.008;37.440;2023-11-19T02:19:02;67.78;;;27.80;;
65998;SDS011;52766;56.008;37.440;2023-11-19T02:21:53;37.85;;;17.75;;
65998;SDS011;52766;56.008;37.440;2023-11-19T02:24:22;51.22;;;22.95;;
65998;SDS011;52766;56.008;37.440;2023-11-19T02:26:54;44.63;;;18.95;;
65998;SDS011;52766;56.008;37.440;2023-11-19T02:29:25;52.22;;;22.35;;
65998;SDS011;52766;56.008;37.440;2023-11-19T02:31:52;56.60;;;22.83;;
65998;SDS011;52766;56.008;37.440;2023-11-19T02:34:21;60.97;;;22.35;;
65998;SDS011;52766;56.008;37.440;2023-11-19T02:36:51;44.15;;;18.33;;
65998;SDS011;52766;56.008;37.440;2023-11-19T02:39:19;46.83;;;21.20;;
65998;SDS011;52766;56.008;37.440;2023-11-19T02:41:48;46.10;;;19.58;;
65998;SDS011;52766;56.008;37.440;2023-11-19T02:44:21;48.05;;;19.35;;
65998;SDS011;52766;56.008;37.440;2023-11-19T02:46:47;49.75;;;19.02;;
65998;SDS011;52766;56.008;37.440;2023-11-19T02:49:15;50.92;;;20.50;;
65998;SDS011;52766;56.008;37.440;2023-11-19T02:51:42;44.88;;;18.00;;
65998;SDS011;52766;56.008;37.440;2023-11-19T02:54:09;43.58;;;18.73;;
65998;SDS011;52766;56.008;37.440;2023-11-19T02:56:36;37.03;;;14.93;;
65998;SDS011;52766;56.008;37.440;2023-11-19T02:59:05;53.60;;;19.35;;
65998;SDS011;52766;56.008;37.440;2023-11-19T03:01:41;48.40;;;18.08;;
65998;SDS011;52766;56.008;37.440;2023-11-19T03:04:09;45.00;;;17.08;;
65998;SDS011;52766;56.008;37.440;2023-11-19T03:06:37;46.60;;;19.50;;
65998;SDS011;52766;56.008;37.440;2023-11-19T03:09:04;45.78;;;18.58;;
65998;SDS011;52766;56.008;37.440;2023-11-19T03:11:36;44.38;;;19.33;;
65998;SDS011;52766;56.008;37.440;2023-11-19T03:14:08;46.63;;;19.98;;
65998;SDS011;52766;56.008;37.440;2023-11-19T03:16:36;40.38;;;17.70;;
65998;SDS011;52766;56.008;37.440;2023-11-19T03:19:04;41.78;;;16.67;;
65998;SDS011;52766;56.008;37.440;2023-11-19T03:21:33;45.17;;;17.15;;
65998;SDS011;52766;56.008;37.440;2023-11-19T03:24:04;38.13;;;16.17;;
65998;SDS011;52766;56.008;37.440;2023-11-19T03:26:35;41.05;;;15.65;;
65998;SDS011;52766;56.008;37.440;2023-11-19T03:29:04;45.13;;;17.73;;
65998;SDS011;52766;56.008;37.440;2023-11-19T03:31:32;47.08;;;17.00;;
65998;SDS011;52766;56.008;37.440;2023-11-19T03:33:58;29.27;;;13.18;;
65998;SDS011;52766;56.008;37.440;2023-11-19T03:36:31;49.10;;;18.08;;
65998;SDS011;52766;56.008;37.440;2023-11-19T03:39:00;45.10;;;17.33;;
65998;SDS011;52766;56.008;37.440;2023-11-19T03:41:29;39.20;;;16.98;;
65998;SDS011;52766;56.008;37.440;2023-11-19T03:43:56;44.50;;;18.45;;
65998;SDS011;52766;56.008;37.440;2023-11-19T03:46:23;44.08;;;17.60;;
65998;SDS011;52766;56.008;37.440;2023-11-19T03:48:56;41.17;;;15.65;;
65998;SDS011;52766;56.008;37.440;2023-11-19T03:51:24;44.83;;;14.95;;
65998;SDS011;52766;56.008;37.440;2023-11-19T03:53:51;40.30;;;14.43;;
65998;SDS011;52766;56.008;37.440;2023-11-19T03:56:19;33.38;;;14.98;;
65998;SDS011;52766;56.008;37.440;2023-11-19T03:58:48;44.00;;;16.42;;
65998;SDS011;52766;56.008;37.440;2023-11-19T04:01:18;37.33;;;16.52;;
65998;SDS011;52766;56.008;37.440;2023-11-19T04:03:46;42.65;;;17.17;;
65998;SDS011;52766;56.008;37.440;2023-11-19T04:06:18;38.92;;;15.63;;
65998;SDS011;52766;56.008;37.440;2023-11-19T04:08:47;36.60;;;17.20;;
65998;SDS011;52766;56.008;37.440;2023-11-19T04:11:36;38.55;;;17.05;;
65998;SDS011;52766;56.008;37.440;2023-11-19T04:14:03;44.90;;;16.65;;
65998;SDS011;52766;56.008;37.440;2023-11-19T04:16:30;40.28;;;17.50;;
65998;SDS011;52766;56.008;37.440;2023-11-19T04:19:07;22.63;;;11.35;;
65998;SDS011;52766;56.008;37.440;2023-11-19T04:22:01;41.53;;;16.50;;
65998;SDS011;52766;56.008;37.440;2023-11-19T04:24:34;51.38;;;18.55;;
65998;SDS011;52766;56.008;37.440;2023-11-19T04:27:06;24.15;;;9.32;;
65998;SDS011;52766;56.008;37.440;2023-11-19T04:29:37;32.33;;;13.38;;
65998;SDS011;52766;56.008;37.440;2023-11-19T04:34:36;51.00;;;16.35;;
65998;SDS011;52766;56.008;37.440;2023-11-19T04:37:06;49.03;;;17.63;;
65998;SDS011;52766;56.008;37.440;2023-11-19T04:39:37;41.80;;;19.13;;
65998;SDS011;52766;56.008;37.440;2023-11-19T04:42:08;49.63;;;19.95;;
65998;SDS011;52766;56.008;37.440;2023-11-19T04:44:37;28.42;;;12.93;;
65998;SDS011;52766;56.008;37.440;2023-11-19T04:47:05;21.17;;;8.30;;
65998;SDS011;52766;56.008;37.440;2023-11-19T04:49:40;39.05;;;16.10;;
65998;SDS011;52766;56.008;37.440;2023-11-19T04:52:11;48.15;;;20.73;;
65998;SDS011;52766;56.008;37.440;2023-11-19T04:54:48;36.50;;;15.13;;
65998;SDS011;52766;56.008;37.440;2023-11-19T04:57:20;34.35;;;13.35;;
65998;SDS011;52766;56.008;37.440;2023-11-19T05:00:03;42.25;;;17.50;;
65998;SDS011;52766;56.008;37.440;2023-11-19T05:02:36;46.38;;;20.75;;
65998;SDS011;52766;56.008;37.440;2023-11-19T05:05:11;35.42;;;15.25;;
65998;SDS011;52766;56.008;37.440;2023-11-19T05:07:47;34.10;;;16.48;;
65998;SDS011;52766;56.008;37.440;2023-11-19T05:10:27;52.83;;;22.15;;
65998;SDS011;52766;56.008;37.440;2023-11-19T05:13:00;39.42;;;16.52;;
65998;SDS011;52766;56.008;37.440;2023-11-19T05:15:36;44.45;;;19.48;;
65998;SDS011;52766;56.008;37.440;2023-11-19T05:18:22;47.03;;;21.23;;
65998;SDS011;52766;56.008;37.440;2023-11-19T05:21:44;37.85;;;15.38;;
65998;SDS011;52766;56.008;37.440;2023-11-19T05:24:22;56.95;;;21.58;;
65998;SDS011;52766;56.008;37.440;2023-11-19T05:26:49;48.63;;;20.50;;
65998;SDS011;52766;56.008;37.440;2023-11-19T05:36:05;28.98;;;11.52;;
65998;SDS011;52766;56.008;37.440;2023-11-19T05:38:54;40.55;;;15.90;;
65998;SDS011;52766;56.008;37.440;2023-11-19T05:41:38;43.05;;;17.42;;
65998;SDS011;52766;56.008;37.440;2023-11-19T05:44:32;40.30;;;17.95;;
65998;SDS011;52766;56.008;37.440;2023-11-19T05:47:03;13.40;;;6.95;;
65998;SDS011;52766;56.008;37.440;2023-11-19T05:49:56;38.88;;;15.73;;
65998;SDS011;52766;56.008;37.440;2023-11-19T05:59:36;41.05;;;15.60;;
65998;SDS011;52766;56.008;37.440;2023-11-19T06:05:48;34.70;;;13.13;;
65998;SDS011;52766;56.008;37.440;2023-11-19T06:08:52;33.22;;;15.07;;
65998;SDS011;52766;56.008;37.440;2023-11-19T06:11:56;26.65;;;8.93;;
65998;SDS011;52766;56.008;37.440;2023-11-19T06:15:26;26.40;;;11.10;;
65998;SDS011;52766;56.008;37.440;2023-11-19T06:19:13;31.38;;;13.05;;
65998;SDS011;52766;56.008;37.440;2023-11-19T06:22:15;23.70;;;10.77;;
65998;SDS011;52766;56.008;37.440;2023-11-19T06:25:15;36.22;;;16.35;;
65998;SDS011;52766;56.008;37.440;2023-11-19T06:27:47;32.72;;;14.40;;
65998;SDS011;52766;56.008;37.440;2023-11-19T06:31:16;33.95;;;15.23;;
65998;SDS011;52766;56.008;37.440;2023-11-19T06:35:24;30.52;;;13.82;;
65998;SDS011;52766;56.008;37.440;2023-11-19T06:42:18;28.77;;;12.55;;
65998;SDS011;52766;56.008;37.440;2023-11-19T06:45:48;30.15;;;13.20;;
65998;SDS011;52766;56.008;37.440;2023-11-19T06:48:42;32.92;;;14.65;;
65998;SDS011;52766;56.008;37.440;2023-11-19T06:52:23;31.02;;;13.85;;
65998;SDS011;52766;56.008;37.440;2023-11-19T08:46:09;8.73;;;3.28;;
65998;SDS011;52766;56.008;37.440;2023-11-19T08:56:12;10.90;;;3.63;;
65998;SDS011;52766;56.008;37.440;2023-11-19T08:59:10;8.65;;;3.38;;
65998;SDS011;52766;56.008;37.440;2023-11-19T09:04:46;8.80;;;3.83;;
65998;SDS011;52766;56.008;37.440;2023-11-19T09:10:46;7.45;;;2.58;;
65998;SDS011;52766;56.008;37.440;2023-11-19T09:13:51;18.17;;;4.20;;
65998;SDS011;52766;56.008;37.440;2023-11-19T09:19:41;9.23;;;3.50;;
65998;SDS011;52766;56.008;37.440;2023-11-19T09:23:15;9.23;;;4.38;;
65998;SDS011;52766;56.008;37.440;2023-11-19T09:47:25;6.53;;;2.45;;
65998;SDS011;52766;56.008;37.440;2023-11-19T09:50:15;5.40;;;2.65;;
65998;SDS011;52766;56.008;37.440;2023-11-19T09:55:43;10.10;;;4.32;;
65998;SDS011;52766;56.008;37.440;2023-11-19T09:58:52;3.15;;;2.22;;
65998;SDS011;52766;56.008;37.440;2023-11-19T10:05:10;8.35;;;3.88;;
65998;SDS011;52766;56.008;37.440;2023-11-19T10:31:33;4.90;;;2.75;;
65998;SDS011;52766;56.008;37.440;2023-11-19T10:34:10;6.35;;;2.63;;
65998;SDS011;52766;56.008;37.440;2023-11-19T10:40:17;7.68;;;2.72;;
65998;SDS011;52766;56.008;37.440;2023-11-19T10:43:25;7.53;;;1.70;;
65998;SDS011;52766;56.008;37.440;2023-11-19T10:46:42;7.30;;;3.85;;
65998;SDS011;52766;56.008;37.440;2023-11-19T10:52:57;15.95;;;5.97;;
65998;SDS011;52766;56.008;37.440;2023-11-19T10:55:50;25.42;;;6.82;;
65998;SDS011;52766;56.008;37.440;2023-11-19T11:01:38;12.40;;;5.55;;
65998;SDS011;52766;56.008;37.440;2023-11-19T11:04:15;28.10;;;7.68;;
65998;SDS011;52766;56.008;37.440;2023-11-19T11:06:54;18.88;;;7.00;;
65998;SDS011;52766;56.008;37.440;2023-11-19T11:09:32;17.55;;;7.68;;
65998;SDS011;52766;56.008;37.440;2023-11-19T11:15:26;8.38;;;3.63;;
65998;SDS011;52766;56.008;37.440;2023-11-19T11:18:01;29.65;;;8.80;;
65998;SDS011;52766;56.008;37.440;2023-11-19T11:21:12;15.52;;;6.53;;
65998;SDS011;52766;56.008;37.440;2023-11-19T11:29:50;19.77;;;6.80;;
65998;SDS011;52766;56.008;37.440;2023-11-19T11:36:19;24.38;;;8.18;;
65998;SDS011;52766;56.008;37.440;2023-11-19T11:38:55;21.63;;;5.70;;
65998;SDS011;52766;56.008;37.440;2023-11-19T11:41:34;18.05;;;7.25;;
65998;SDS011;52766;56.008;37.440;2023-11-19T11:44:10;19.13;;;7.70;;
65998;SDS011;52766;56.008;37.440;2023-11-19T11:46:56;25.08;;;10.07;;
65998;SDS011;52766;56.008;37.440;2023-11-19T11:49:24;34.40;;;10.20;;
65998;SDS011;52766;56.008;37.440;2023-11-19T11:52:04;18.10;;;8.90;;
65998;SDS011;52766;56.008;37.440;2023-11-19T11:54:42;33.58;;;11.95;;
65998;SDS011;52766;56.008;37.440;2023-11-19T11:57:14;16.52;;;7.80;;
65998;SDS011;52766;56.008;37.440;2023-11-19T11:59:45;29.83;;;11.10;;
65998;SDS011;52766;56.008;37.440;2023-11-19T12:02:24;18.42;;;7.82;;
65998;SDS011;52766;56.008;37.440;2023-11-19T12:04:53;27.60;;;13.40;;
65998;SDS011;52766;56.008;37.440;2023-11-19T12:07:28;15.88;;;6.95;;
65998;SDS011;52766;56.008;37.440;2023-11-19T12:10:09;37.88;;;10.85;;
65998;SDS011;52766;56.008;37.440;2023-11-19T12:31:09;24.20;;;10.38;;
65998;SDS011;52766;56.008;37.440;2023-11-19T12:33:40;32.08;;;13.77;;
65998;SDS011;52766;56.008;37.440;2023-11-19T12:38:38;36.30;;;15.30;;
65998;SDS011;52766;56.008;37.440;2023-11-19T14:26:00;16.30;;;6.38;;
65998;SDS011;52766;56.008;37.440;2023-11-19T17:54:56;21.33;;;8.27;;
65998;SDS011;52766;56.008;37.440;2023-11-19T17:57:31;22.13;;;9.75;;
65998;SDS011;52766;56.008;37.440;2023-11-19T18:00:14;37.92;;;10.90;;
65998;SDS011;52766;56.008;37.440;2023-11-19T18:02:54;33.10;;;14.77;;
65998;SDS011;52766;56.008;37.440;2023-11-19T18:05:26;25.33;;;9.15;;
65998;SDS011;52766;56.008;37.440;2023-11-19T18:14:09;25.30;;;10.68;;
65998;SDS011;52766;56.008;37.440;2023-11-19T18:20:04;29.38;;;11.85;;
65998;SDS011;52766;56.008;37.440;2023-11-19T18:23:13;33.70;;;11.23;;
65998;SDS011;52766;56.008;37.440;2023-11-19T18:26:36;24.27;;;10.48;;
65998;SDS011;52766;56.008;37.440;2023-11-19T18:42:05;29.25;;;11.07;;
65998;SDS011;52766;56.008;37.440;2023-11-19T18:48:07;29.25;;;11.93;;
65998;SDS011;52766;56.008;37.440;2023-11-19T18:51:06;22.15;;;10.05;;
65998;SDS011;52766;56.008;37.440;2023-11-19T19:06:11;29.15;;;11.43;;
65998;SDS011;52766;56.008;37.440;2023-11-19T19:12:53;26.33;;;10.90;;
65998;SDS011;52766;56.008;37.440;2023-11-19T19:15:34;24.02;;;11.45;;
65998;SDS011;52766;56.008;37.440;2023-11-19T19:49:41;37.33;;;14.80;;
65998;SDS011;52766;56.008;37.440;2023-11-19T19:52:13;42.00;;;14.80;;
65998;SDS011;52766;56.008;37.440;2023-11-19T19:54:46;35.67;;;13.05;;
65998;SDS011;52766;56.008;37.440;2023-11-19T19:57:15;37.20;;;16.00;;
65998;SDS011;52766;56.008;37.440;2023-11-19T19:59:45;43.35;;;16.17;;
65998;SDS011;52766;56.008;37.440;2023-11-19T20:02:25;39.97;;;13.75;;
65998;SDS011;52766;56.008;37.440;2023-11-19T20:19:43;37.78;;;16.58;;
65998;SDS011;52766;56.008;37.440;2023-11-19T20:22:16;39.60;;;14.23;;
65998;SDS011;52766;56.008;37.440;2023-11-19T20:24:51;40.25;;;18.17;;
65998;SDS011;52766;56.008;37.440;2023-11-19T20:27:26;44.60;;;16.88;;
65998;SDS011;52766;56.008;37.440;2023-11-19T20:30:03;34.75;;;14.18;;
65998;SDS011;52766;56.008;37.440;2023-11-19T20:32:34;38.90;;;15.20;;
65998;SDS011;52766;56.008;37.440;2023-11-19T20:35:02;36.22;;;14.68;;
65998;SDS011;52766;56.008;37.440;2023-11-19T20:37:29;43.33;;;17.10;;
65998;SDS011;52766;56.008;37.440;2023-11-19T20:40:02;27.17;;;11.07;;
65998;SDS011;52766;56.008;37.440;2023-11-19T20:42:34;33.97;;;14.40;;
65998;SDS011;52766;56.008;37.440;2023-11-19T20:45:07;43.38;;;16.75;;
65998;SDS011;52766;56.008;37.440;2023-11-19T20:47:37;47.15;;;14.55;;
65998;SDS011;52766;56.008;37.440;2023-11-19T20:53:06;37.53;;;12.68;;
65998;SDS011;52766;56.008;37.440;2023-11-19T20:55:40;44.30;;;14.85;;
65998;SDS011;52766;56.008;37.440;2023-11-19T20:58:30;37.90;;;14.77;;
65998;SDS011;52766;56.008;37.440;2023-11-19T21:01:21;32.55;;;11.93;;
65998;SDS011;52766;56.008;37.440;2023-11-19T21:03:50;27.88;;;10.23;;
65998;SDS011;52766;56.008;37.440;2023-11-19T21:06:22;33.75;;;12.77;;
65998;SDS011;52766;56.008;37.440;2023-11-19T21:08:52;38.00;;;15.85;;
65998;SDS011;52766;56.008;37.440;2023-11-19T21:11:22;26.73;;;11.35;;
65998;SDS011;52766;56.008;37.440;2023-11-19T21:13:53;41.15;;;15.48;;
65998;SDS011;52766;56.008;37.440;2023-11-19T21:16:20;38.80;;;14.77;;
65998;SDS011;52766;56.008;37.440;2023-11-19T21:18:51;28.10;;;11.77;;
65998;SDS011;52766;56.008;37.440;2023-11-19T21:21:24;42.90;;;14.82;;
65998;SDS011;52766;56.008;37.440;2023-11-19T21:23:54;42.63;;;15.45;;
65998;SDS011;52766;56.008;37.440;2023-11-19T21:26:24;41.33;;;16.80;;
65998;SDS011;52766;56.008;37.440;2023-11-19T21:29:04;30.35;;;12.60;;
65998;SDS011;52766;56.008;37.440;2023-11-19T21:31:33;36.53;;;11.75;;
65998;SDS011;52766;56.008;37.440;2023-11-19T21:34:09;45.33;;;16.65;;
65998;SDS011;52766;56.008;37.440;2023-11-19T21:36:36;34.38;;;13.88;;
65998;SDS011;52766;56.008;37.440;2023-11-19T21:39:13;41.38;;;15.95;;
65998;SDS011;52766;56.008;37.440;2023-11-19T21:41:41;40.70;;;15.70;;
65998;SDS011;52766;56.008;37.440;2023-11-19T21:44:38;28.92;;;13.55;;
65998;SDS011;52766;56.008;37.440;2023-11-19T21:47:12;25.65;;;12.27;;
65998;SDS011;52766;56.008;37.440;2023-11-19T21:49:41;37.22;;;12.95;;
65998;SDS011;52766;56.008;37.440;2023-11-19T21:52:11;35.42;;;14.18;;
65998;SDS011;52766;56.008;37.440;2023-11-19T21:54:41;37.30;;;14.60;;
65998;SDS011;52766;56.008;37.440;2023-11-19T21:57:08;24.98;;;11.45;;
65998;SDS011;52766;56.008;37.440;2023-11-19T21:59:34;37.90;;;15.50;;
65998;SDS011;52766;56.008;37.440;2023-11-19T22:02:00;39.15;;;15.05;;
65998;SDS011;52766;56.008;37.440;2023-11-19T22:07:49;31.92;;;11.07;;
65998;SDS011;52766;56.008;37.440;2023-11-19T22:10:19;16.92;;;7.00;;
65998;SDS011;52766;56.008;37.440;2023-11-19T22:12:49;29.08;;;12.65;;
65998;SDS011;52766;56.008;37.440;2023-11-19T22:15:20;29.73;;;12.05;;
65998;SDS011;52766;56.008;37.440;2023-11-19T22:17:47;35.38;;;15.45;;
65998;SDS011;52766;56.008;37.440;2023-11-19T22:20:17;32.30;;;12.63;;
65998;SDS011;52766;56.008;37.440;2023-11-19T22:22:47;25.92;;;10.35;;
65998;SDS011;52766;56.008;37.440;2023-11-19T22:25:16;33.55;;;12.25;;
65998;SDS011;52766;56.008;37.440;2023-11-19T22:27:48;34.95;;;11.98;;
65998;SDS011;52766;56.008;37.440;2023-11-19T22:30:14;22.02;;;9.25;;
65998;SDS011;52766;56.008;37.440;2023-11-19T22:32:42;43.92;;;14.45;;
65998;SDS011;52766;56.008;37.440;2023-11-19T22:35:11;39.90;;;17.20;;
65998;SDS011;52766;56.008;37.440;2023-11-19T22:37:41;31.90;;;13.32;;
65998;SDS011;52766;56.008;37.440;2023-11-19T22:40:21;40.83;;;13.38;;
65998;SDS011;52766;56.008;37.440;2023-11-19T22:42:54;32.47;;;11.88;;
65998;SDS011;52766;56.008;37.440;2023-11-19T22:45:21;40.85;;;12.55;;
65998;SDS011;52766;56.008;37.440;2023-11-19T22:47:46;30.50;;;12.18;;
65998;SDS011;52766;56.008;37.440;2023-11-19T22:50:16;35.17;;;13.55;;
65998;SDS011;52766;56.008;37.440;2023-11-19T22:52:43;41.92;;;15.48;;
65998;SDS011;52766;56.008;37.440;2023-11-19T22:55:16;37.42;;;15.15;;
65998;SDS011;52766;56.008;37.440;2023-11-19T22:57:45;38.33;;;15.27;;
65998;SDS011;52766;56.008;37.440;2023-11-19T23:00:11;39.67;;;14.52;;
65998;SDS011;52766;56.008;37.440;2023-11-19T23:02:58;38.90;;;14.57;;
65998;SDS011;52766;56.008;37.440;2023-11-19T23:05:28;34.17;;;13.57;;
65998;SDS011;52766;56.008;37.440;2023-11-19T23:07:56;38.70;;;15.07;;
65998;SDS011;52766;56.008;37.440;2023-11-19T23:10:26;38.92;;;16.27;;
65998;SDS011;52766;56.008;37.440;2023-11-19T23:12:52;35.95;;;14.43;;
65998;SDS011;52766;56.008;37.440;2023-11-19T23:15:18;37.55;;;13.73;;
65998;SDS011;52766;56.008;37.440;2023-11-19T23:17:44;36.72;;;13.48;;
65998;SDS011;52766;56.008;37.440;2023-11-19T23:20:14;33.60;;;13.20;;
65998;SDS011;52766;56.008;37.440;2023-11-19T23:22:42;36.35;;;14.00;;
65998;SDS011;52766;56.008;37.440;2023-11-19T23:25:08;33.38;;;12.25;;
65998;SDS011;52766;56.008;37.440;2023-11-19T23:27:36;29.35;;;12.65;;
65998;SDS011;52766;56.008;37.440;2023-11-19T23:30:03;35.97;;;14.32;;
65998;SDS011;52766;56.008;37.440;2023-11-19T23:32:31;38.15;;;15.38;;
65998;SDS011;52766;56.008;37.440;2023-11-19T23:34:57;32.13;;;14.63;;
65998;SDS011;52766;56.008;37.440;2023-11-19T23:37:24;36.65;;;14.60;;
65998;SDS011;52766;56.008;37.440;2023-11-19T23:39:51;33.00;;;13.93;;
65998;SDS011;52766;56.008;37.440;2023-11-19T23:42:19;46.30;;;16.02;;
65998;SDS011;52766;56.008;37.440;2023-11-19T23:44:48;39.63;;;13.07;;
65998;SDS011;52766;56.008;37.440;2023-11-19T23:47:15;26.25;;;11.38;;
65998;SDS011;52766;56.008;37.440;2023-11-19T23:49:42;33.35;;;14.40;;
65998;SDS011;52766;56.008;37.440;2023-11-19T23:52:08;25.85;;;11.07;;
65998;SDS011;52766;56.008;37.440;2023-11-19T23:54:34;39.35;;;15.07;;
65998;SDS011;52766;56.008;37.440;2023-11-19T23:57:00;41.60;;;15.35;;
65998;SDS011;52766;56.008;37.440;2023-11-19T23:59:26;40.70;;;15.05;;
